Terminal Aerodrome Forecast
Issued by NWS Newport/Morehead City, NC

Home | Current Version | Previous Version | Text Only | Print | Product List | Glossary Off
Versions: 1 2 3 4 5 6 7 8 9 10 11 12 13 14 15 16 17 18

517
FTUS42 KMHX 231125
TAFEWN
TAF
KEWN 231125Z 2312/2412 VRB03KT P6SM BKN200
     FM231900 13008KT P6SM BKN035
     FM232200 12007KT P6SM SCT150
     FM240200 VRB03KT P6SM SCT250=

USA.gov is the U.S. government's official web portal to all federal, state and local government web resources and services.